Time;durP1;ratioP1;P1;durP2;ratioP2;P2;SDS_P1;SDS_P2;PMS_P1;PMS_P2;Temp;Humidity;BMP_temperature;BMP_pressure;BME280_temperature;BME280_humidity;BME280_pressure;Samples;Min_cycle;Max_cycle;Signal;HPM_P1;HPM_P2
2023/02/28 00:00:17;;;;;;;;;;;;;;;-2.63;63.98;97019.69;4997522;28;20417;-74
2023/02/28 00:02:43;;;;;;;;;;;;;;;-2.66;63.30;97022.50;4997449;28;19952;-74
2023/02/28 00:05:10;;;;;;;;;;;;;;;-2.67;63.55;97019.13;4979950;28;20331;-75
2023/02/28 00:07:36;;;;;;;;;;;;;;;-2.64;63.75;97024.94;4997523;28;19948;-74
2023/02/28 00:10:03;;;;;;;;;;;;;;;-2.64;63.80;97025.75;4979885;28;19956;-74
2023/02/28 00:12:29;;;;;;;;;;;;;;;-2.66;63.57;97020.75;4996582;28;19952;-74
2023/02/28 00:14:55;;;;;;;;;;;;;;;-2.69;63.94;97022.72;4997158;28;19950;-75
2023/02/28 00:17:21;;;;;;;;;;;;;;;-2.70;64.09;97024.47;4997424;28;20008;-74
2023/02/28 00:19:48;;;;;;;;;;;;;;;-2.75;64.00;97020.63;4997249;28;19957;-75
2023/02/28 00:22:14;;;;;;;;;;;;;;;-2.80;64.15;97018.44;4997060;28;19958;-75
2023/02/28 00:24:40;;;;;;;;;;;;;;;-2.82;64.69;97019.50;4996322;28;19971;-74
2023/02/28 00:27:06;;;;;;;;;;;;;;;-2.84;65.23;97016.22;4996165;28;19946;-74
2023/02/28 00:29:32;;;;;;;;;;;;;;;-2.88;64.31;97015.66;4979318;28;20482;-75
2023/02/28 00:31:58;;;;;;;;;;;;;;;-2.90;65.06;97018.34;4997075;28;19958;-74
2023/02/28 00:34:24;;;;;;;;;;;;;;;-2.94;65.25;97016.97;4996881;28;19992;-75
2023/02/28 00:36:50;;;;;;;;;;;;;;;-2.96;64.71;97015.44;4996889;28;19961;-74
2023/02/28 00:39:16;;;;;;;;;;;;;;;-2.96;65.13;97020.56;4996613;28;20007;-75
2023/02/28 00:41:42;;;;;;;;;;;;;;;-2.96;64.69;97011.13;4995470;28;19987;-74
2023/02/28 00:44:08;;;;;;;;;;;;;;;-2.96;65.19;97015.44;4996647;28;19958;-76
2023/02/28 00:46:35;;;;;;;;;;;;;;;-3.03;65.24;97015.09;4995989;28;21734;-74
2023/02/28 00:49:01;;;;;;;;;;;;;;;-3.05;65.54;97011.84;4995897;28;19997;-74
2023/02/28 00:51:27;;;;;;;;;;;;;;;-3.07;64.73;97011.13;4979177;28;20038;-75
2023/02/28 00:53:53;;;;;;;;;;;;;;;-3.10;65.56;97012.19;4996190;28;19954;-75
2023/02/28 00:56:19;;;;;;;;;;;;;;;-3.11;65.91;97017.44;4995948;28;19956;-74
2023/02/28 00:58:45;;;;;;;;;;;;;;;-3.17;65.49;97003.34;4978933;28;19980;-74
2023/02/28 01:01:11;;;;;;;;;;;;;;;-3.20;65.75;97006.13;4996426;28;19949;-74
2023/02/28 01:03:38;;;;;;;;;;;;;;;-3.22;65.36;97010.56;4979240;28;19955;-74
2023/02/28 01:06:04;;;;;;;;;;;;;;;-3.23;65.96;97003.81;4996131;28;19974;-75
2023/02/28 01:08:30;;;;;;;;;;;;;;;-3.24;66.34;97007.31;4996236;28;19958;-74
2023/02/28 01:10:56;;;;;;;;;;;;;;;-3.29;66.46;97004.28;4996396;28;20310;-74
2023/02/28 01:13:23;;;;;;;;;;;;;;;-3.29;66.74;97004.28;4996290;28;19955;-74
2023/02/28 01:15:51;;;;;;;;;;;;;;;-3.30;66.28;97002.66;4996069;28;20313;-74
2023/02/28 01:18:17;;;;;;;;;;;;;;;-3.34;66.61;97002.09;4995801;28;19948;-75
2023/02/28 01:20:43;;;;;;;;;;;;;;;-3.38;67.14;96998.13;4995855;28;19950;-75
2023/02/28 01:23:09;;;;;;;;;;;;;;;-3.39;66.61;96999.03;4995954;28;19954;-75
2023/02/28 01:25:35;;;;;;;;;;;;;;;-3.43;67.35;97000.19;4995879;28;19998;-75
2023/02/28 01:28:01;;;;;;;;;;;;;;;-3.43;66.99;97001.97;4996028;28;19950;-75
2023/02/28 01:30:27;;;;;;;;;;;;;;;-3.47;67.79;96999.63;4994919;28;19958;-75
2023/02/28 01:32:53;;;;;;;;;;;;;;;-3.52;67.85;96994.03;4995998;28;19985;-75
2023/02/28 01:35:19;;;;;;;;;;;;;;;-3.53;68.99;97005.22;4995996;28;20430;-75
2023/02/28 01:37:45;;;;;;;;;;;;;;;-3.56;68.26;96992.63;4995789;28;20296;-75
2023/02/28 01:40:11;;;;;;;;;;;;;;;-3.58;68.18;96991.94;4995622;28;20007;-73
2023/02/28 01:42:37;;;;;;;;;;;;;;;-3.59;67.13;96985.19;4995763;28;19973;-76
2023/02/28 01:45:39;;;;;;;;;;;;;;;-3.58;68.12;96988.56;4995280;28;19975;-75
2023/02/28 01:48:07;;;;;;;;;;;;;;;-3.58;68.50;96991.13;4965452;28;20331;-74
2023/02/28 01:50:37;;;;;;;;;;;;;;;-3.59;68.86;96992.03;4990961;28;19940;-74
2023/02/28 01:53:06;;;;;;;;;;;;;;;-3.59;69.31;96981.78;4995547;28;19951;-75
2023/02/28 01:55:33;;;;;;;;;;;;;;;-3.58;68.40;96981.69;4995272;28;20314;-74
2023/02/28 01:58:01;;;;;;;;;;;;;;;-3.59;68.24;96981.78;4995174;28;19954;-74
2023/02/28 02:00:28;;;;;;;;;;;;;;;-3.62;68.39;96980.28;4995471;28;19949;-74
2023/02/28 02:02:57;;;;;;;;;;;;;;;-3.65;69.08;96977.97;4995605;28;20296;-74
2023/02/28 02:05:24;;;;;;;;;;;;;;;-3.67;69.90;96980.63;4995075;28;19962;-74
2023/02/28 02:07:52;;;;;;;;;;;;;;;-3.69;69.22;96977.38;4995162;28;19949;-74
2023/02/28 02:10:19;;;;;;;;;;;;;;;-3.69;69.68;96981.69;4977725;28;19958;-74
2023/02/28 02:12:48;;;;;;;;;;;;;;;-3.72;69.86;96980.13;4995098;28;19951;-74
2023/02/28 02:15:40;;;;;;;;;;;;;;;-3.73;71.64;96980.28;4977429;28;20419;-74
2023/02/28 02:18:14;;;;;;;;;;;;;;;-3.73;70.84;96972.59;4991039;28;20429;-75
2023/02/28 02:21:03;;;;;;;;;;;;;;;-3.71;71.28;96975.84;4995241;28;19956;-74
2023/02/28 02:23:29;;;;;;;;;;;;;;;-3.69;69.81;96964.56;4989711;28;19947;-74
2023/02/28 02:26:21;;;;;;;;;;;;;;;-3.71;71.29;96966.41;4994587;28;19956;-74
2023/02/28 02:28:47;;;;;;;;;;;;;;;-3.74;71.51;96960.69;4957635;28;19959;-74
2023/02/28 02:31:19;;;;;;;;;;;;;;;-3.74;70.38;96970.94;4994909;28;19948;-74
2023/02/28 02:33:45;;;;;;;;;;;;;;;-3.75;71.06;96961.63;4994595;28;19957;-74
2023/02/28 02:36:24;;;;;;;;;;;;;;;-3.77;70.70;96964.31;4977330;28;20310;-75
2023/02/28 02:39:05;;;;;;;;;;;;;;;-3.77;70.59;96960.94;4995143;28;19951;-74
2023/02/28 02:41:37;;;;;;;;;;;;;;;-3.80;71.49;96976.53;4994540;28;19970;-73
2023/02/28 02:44:12;;;;;;;;;;;;;;;-3.78;71.40;96977.22;4976961;28;19945;-73
2023/02/28 02:46:41;;;;;;;;;;;;;;;-3.74;72.18;96968.38;4994776;28;20424;-74
2023/02/28 02:49:09;;;;;;;;;;;;;;;-3.73;71.13;96970.84;4994731;28;19945;-76
2023/02/28 02:51:38;;;;;;;;;;;;;;;-3.73;72.15;96962.34;4980915;28;20305;-75
2023/02/28 02:54:28;;;;;;;;;;;;;;;-3.74;72.79;96971.78;4993601;28;19952;-74
2023/02/28 02:56:56;;;;;;;;;;;;;;;-3.74;72.84;96969.22;4980824;28;20419;-74
2023/02/28 02:59:23;;;;;;;;;;;;;;;-3.71;71.78;96968.97;4994124;28;19945;-73
2023/02/28 03:01:52;;;;;;;;;;;;;;;-3.68;73.03;96973.03;4977320;28;19950;-73
2023/02/28 03:04:20;;;;;;;;;;;;;;;-3.68;72.67;96973.03;4994122;28;19947;-73
2023/02/28 03:06:45;;;;;;;;;;;;;;;-3.68;73.07;96970.47;4994192;28;19954;-76
2023/02/28 03:09:11;;;;;;;;;;;;;;;-3.70;73.09;96974.91;4994347;28;20028;-75
2023/02/28 03:11:38;;;;;;;;;;;;;;;-3.70;73.27;96974.91;4976875;28;19947;-74
2023/02/28 03:14:15;;;;;;;;;;;;;;;-3.73;73.05;96981.09;4994141;28;19951;-75
2023/02/28 03:16:59;;;;;;;;;;;;;;;-3.71;72.50;96970.72;4994474;28;19949;-76
2023/02/28 03:19:44;;;;;;;;;;;;;;;-3.71;73.10;96968.16;4997542;28;20060;-75
2023/02/28 03:22:12;;;;;;;;;;;;;;;-3.71;73.40;96966.41;4998144;28;19949;-75
2023/02/28 03:24:38;;;;;;;;;;;;;;;-3.71;72.51;96968.97;4998200;28;20329;-75
2023/02/28 03:27:07;;;;;;;;;;;;;;;-3.72;75.44;96966.50;4998302;28;19942;-74
2023/02/28 03:29:35;;;;;;;;;;;;;;;-3.72;74.93;96974.22;4997915;28;19938;-74
2023/02/28 03:32:27;;;;;;;;;;;;;;;-3.71;74.05;96974.09;4997975;28;19961;-75
2023/02/28 03:35:00;;;;;;;;;;;;;;;-3.69;72.45;96967.09;4996711;28;19949;-74
2023/02/28 03:37:29;;;;;;;;;;;;;;;-3.69;74.93;96968.88;4980725;28;19951;-74
2023/02/28 03:40:12;;;;;;;;;;;;;;;-3.69;75.12;96971.44;4997745;28;20404;-74
2023/02/28 03:42:39;;;;;;;;;;;;;;;-3.67;75.72;96964.44;4997620;28;20420;-74
2023/02/28 03:45:10;;;;;;;;;;;;;;;-3.63;74.89;96970.97;4998100;28;19965;-74
2023/02/28 03:47:45;;;;;;;;;;;;;;;-3.60;74.81;96959.66;4997692;28;19945;-74
2023/02/28 03:50:15;;;;;;;;;;;;;;;-3.58;74.24;96960.34;4997659;28;20314;-74
2023/02/28 03:52:44;;;;;;;;;;;;;;;-3.56;74.24;96966.19;4997633;28;19952;-74
2023/02/28 03:55:12;;;;;;;;;;;;;;;-3.55;74.29;96972.94;4997549;28;19956;-74
2023/02/28 03:58:01;;;;;;;;;;;;;;;-3.53;75.16;96973.63;4997573;28;19951;-74
2023/02/28 04:00:29;;;;;;;;;;;;;;;-3.52;74.59;96965.81;4997688;28;19943;-74
2023/02/28 04:02:55;;;;;;;;;;;;;;;-3.48;76.11;96967.22;4997256;28;19943;-74
2023/02/28 04:05:22;;;;;;;;;;;;;;;-3.47;76.57;96970.59;4980206;28;20433;-74
2023/02/28 04:07:48;;;;;;;;;;;;;;;-3.47;76.28;96958.59;4997491;28;19953;-75
2023/02/28 04:10:14;;;;;;;;;;;;;;;-3.47;76.08;96965.47;4997277;28;19951;-74
2023/02/28 04:12:40;;;;;;;;;;;;;;;-3.46;74.95;96954.28;4997535;28;19963;-74
2023/02/28 04:15:07;;;;;;;;;;;;;;;-3.45;74.95;96967.94;4997208;28;20347;-75
2023/02/28 04:17:33;;;;;;;;;;;;;;;-3.41;77.01;96970.13;4997429;28;20406;-75
2023/02/28 04:19:58;;;;;;;;;;;;;;;-3.41;76.41;96966.75;4996981;28;19984;-74
2023/02/28 04:22:27;;;;;;;;;;;;;;;-3.41;77.29;96970.13;4997189;28;20001;-74
2023/02/28 04:24:54;;;;;;;;;;;;;;;-3.40;78.76;96971.78;4996880;28;19959;-73
2023/02/28 04:27:20;;;;;;;;;;;;;;;-3.40;77.03;96965.81;4997182;28;19953;-74
2023/02/28 04:29:46;;;;;;;;;;;;;;;-3.39;74.66;96967.47;4978384;28;20338;-74
2023/02/28 04:32:12;;;;;;;;;;;;;;;-3.38;77.50;96971.63;4997012;28;20025;-74
2023/02/28 04:34:38;;;;;;;;;;;;;;;-3.40;77.96;96966.66;4996664;28;19944;-74
2023/02/28 04:37:04;;;;;;;;;;;;;;;-3.39;76.64;96960.56;4997485;28;19953;-74
2023/02/28 04:39:34;;;;;;;;;;;;;;;-3.38;77.78;96967.34;4996870;28;19963;-74
2023/02/28 04:42:00;;;;;;;;;;;;;;;-3.35;78.05;96961.16;4986867;28;19983;-74
2023/02/28 04:44:26;;;;;;;;;;;;;;;-3.33;78.88;96962.66;4996688;28;20411;-74
2023/02/28 04:46:51;;;;;;;;;;;;;;;-3.31;78.33;96965.94;4996785;28;19957;-74
2023/02/28 04:49:17;;;;;;;;;;;;;;;-3.30;78.62;96969.31;4996632;28;19957;-74
2023/02/28 04:51:43;;;;;;;;;;;;;;;-3.28;76.82;96959.75;4996999;28;19978;-74
2023/02/28 04:54:09;;;;;;;;;;;;;;;-3.27;77.46;96962.19;4995535;28;20426;-74
2023/02/28 04:56:35;;;;;;;;;;;;;;;-3.26;79.63;96968.13;4996528;28;19960;-74
2023/02/28 04:59:01;;;;;;;;;;;;;;;-3.25;78.39;96964.66;4979045;28;20393;-75
2023/02/28 05:01:32;;;;;;;;;;;;;;;-3.24;79.64;96966.25;4996418;28;20468;-74
2023/02/28 05:03:59;;;;;;;;;;;;;;;-3.22;79.28;96972.09;4995671;28;19952;-74
2023/02/28 05:06:26;;;;;;;;;;;;;;;-3.18;76.48;96973.50;4979165;28;19966;-75
2023/02/28 05:08:52;;;;;;;;;;;;;;;-3.17;78.66;96974.28;4996188;28;19962;-74
2023/02/28 05:11:18;;;;;;;;;;;;;;;-3.12;79.70;96974.78;4978796;28;19939;-73
2023/02/28 05:13:44;;;;;;;;;;;;;;;-3.11;79.35;96978.94;4996351;28;19987;-76
2023/02/28 05:16:10;;;;;;;;;;;;;;;-3.11;79.62;96979.78;4995957;28;20016;-73
2023/02/28 05:18:36;;;;;;;;;;;;;;;-3.09;78.72;96977.09;4996512;28;19950;-73
2023/02/28 05:21:02;;;;;;;;;;;;;;;-3.09;77.78;96974.53;4978644;28;19955;-73
2023/02/28 05:23:29;;;;;;;;;;;;;;;-3.09;78.51;96979.66;4995909;28;20415;-73
2023/02/28 05:25:55;;;;;;;;;;;;;;;-3.09;79.63;96979.66;5011521;28;19965;-73
2023/02/28 05:28:21;;;;;;;;;;;;;;;-3.09;81.39;96985.63;4995730;28;19954;-73
2023/02/28 05:30:47;;;;;;;;;;;;;;;-3.09;81.37;96987.34;4996121;28;19945;-74
2023/02/28 05:33:13;;;;;;;;;;;;;;;-3.11;79.93;96982.34;4995804;28;19955;-74
2023/02/28 05:35:39;;;;;;;;;;;;;;;-3.10;80.67;96985.72;4978125;28;20048;-76
2023/02/28 05:38:05;;;;;;;;;;;;;;;-3.09;81.12;96988.19;4995949;28;19956;-74
2023/02/28 05:40:31;;;;;;;;;;;;;;;-3.10;80.22;96980.59;4995625;28;19951;-74
2023/02/28 05:42:57;;;;;;;;;;;;;;;-3.13;81.22;96976.53;4962005;28;20019;-75
2023/02/28 05:45:23;;;;;;;;;;;;;;;-3.15;81.78;96978.41;4995279;28;19973;-74
2023/02/28 05:47:52;;;;;;;;;;;;;;;-3.14;82.32;96982.56;4962073;28;19952;-74
2023/02/28 05:50:18;;;;;;;;;;;;;;;-3.14;82.54;96979.19;4977897;28;19941;-74
2023/02/28 05:52:44;;;;;;;;;;;;;;;-3.17;80.62;96970.00;4995481;28;20026;-74
2023/02/28 05:55:10;;;;;;;;;;;;;;;-3.18;80.85;96970.13;4995157;28;19955;-74
2023/02/28 05:57:36;;;;;;;;;;;;;;;-3.18;81.95;96973.50;4995398;28;20003;-74
2023/02/28 06:00:02;;;;;;;;;;;;;;;-3.16;82.22;96975.94;4995589;28;19952;-74
2023/02/28 06:02:28;;;;;;;;;;;;;;;-3.12;82.34;96974.78;4995431;28;19950;-74
2023/02/28 06:04:54;;;;;;;;;;;;;;;-3.12;83.11;96985.03;4995013;28;19958;-75
2023/02/28 06:07:22;;;;;;;;;;;;;;;-3.10;83.06;96981.41;4995605;28;19948;-74
2023/02/28 06:09:48;;;;;;;;;;;;;;;-3.09;83.22;96988.19;4995250;28;20400;-74
2023/02/28 06:12:13;;;;;;;;;;;;;;;-3.10;83.55;96981.41;4994918;28;19948;-74
2023/02/28 06:14:40;;;;;;;;;;;;;;;-3.08;83.02;96989.81;4995147;28;19989;-74
2023/02/28 06:17:06;;;;;;;;;;;;;;;-3.08;83.85;97000.06;4994965;28;19957;-75
2023/02/28 06:19:32;;;;;;;;;;;;;;;-3.09;85.38;97003.56;4995072;28;19948;-74
2023/02/28 06:21:59;;;;;;;;;;;;;;;-3.08;84.36;97004.38;4977941;28;20035;-74
2023/02/28 06:24:27;;;;;;;;;;;;;;;-3.06;84.83;97018.72;4994516;28;20306;-74
2023/02/28 06:26:53;;;;;;;;;;;;;;;-3.05;85.07;97014.41;4994794;28;19972;-75
2023/02/28 06:29:19;;;;;;;;;;;;;;;-3.04;83.31;97010.06;4994782;28;19953;-74
2023/02/28 06:31:46;;;;;;;;;;;;;;;-3.06;85.04;97010.22;4977425;28;20002;-75
2023/02/28 06:34:12;;;;;;;;;;;;;;;-3.08;84.79;97009.53;4994756;28;19973;-75
2023/02/28 06:36:39;;;;;;;;;;;;;;;-3.08;84.19;97012.09;4994797;28;20401;-75
2023/02/28 06:39:05;;;;;;;;;;;;;;;-3.09;82.00;97002.75;4994799;28;19953;-75
2023/02/28 06:41:31;;;;;;;;;;;;;;;-3.07;84.30;97017.09;4994846;28;20337;-75
2023/02/28 06:43:57;;;;;;;;;;;;;;;-3.06;85.75;97025.59;4994479;28;19972;-75
2023/02/28 06:46:23;;;;;;;;;;;;;;;-3.07;84.27;97011.97;4994445;28;20421;-75
2023/02/28 06:48:49;;;;;;;;;;;;;;;-3.08;86.53;97030.84;4994488;28;19972;-75
2023/02/28 06:51:17;;;;;;;;;;;;;;;-3.07;85.05;97021.41;4993833;28;19943;-74
2023/02/28 06:53:43;;;;;;;;;;;;;;;-3.02;83.66;97021.03;4993966;28;19951;-75
2023/02/28 06:56:11;;;;;;;;;;;;;;;-2.99;85.34;97031.06;4994284;28;19941;-75
2023/02/28 06:58:37;;;;;;;;;;;;;;;-2.96;84.95;97028.25;4994496;28;20335;-74
2023/02/28 07:01:03;;;;;;;;;;;;;;;-2.93;84.16;97015.22;4994351;28;20300;-75
2023/02/28 07:03:29;;;;;;;;;;;;;;;-2.90;83.54;97028.63;4994295;28;19946;-74
2023/02/28 07:05:56;;;;;;;;;;;;;;;-2.83;83.44;97020.41;4994163;28;19962;-75
2023/02/28 07:08:23;;;;;;;;;;;;;;;-2.79;84.69;97032.91;4994220;28;20411;-75
2023/02/28 07:10:53;;;;;;;;;;;;;;;-2.75;84.30;97031.75;4976689;28;19960;-75
2023/02/28 07:13:19;;;;;;;;;;;;;;;-2.70;83.47;97021.91;4994118;28;19959;-75
2023/02/28 07:15:52;;;;;;;;;;;;;;;-2.64;84.24;97030.09;4994315;28;19952;-74
2023/02/28 07:18:19;;;;;;;;;;;;;;;-2.63;83.48;97022.25;4994105;28;20321;-74
2023/02/28 07:20:45;;;;;;;;;;;;;;;-2.62;81.23;97003.34;4994070;28;19961;-74
2023/02/28 07:23:10;;;;;;;;;;;;;;;-2.59;82.28;97021.06;4994340;28;19947;-74
2023/02/28 07:25:36;;;;;;;;;;;;;;;-2.57;83.02;97024.31;4993886;28;19962;-74
2023/02/28 07:28:02;;;;;;;;;;;;;;;-2.57;82.66;97026.91;4994310;28;19956;-74
2023/02/28 07:30:28;;;;;;;;;;;;;;;-2.52;81.65;97022.22;4993973;28;19956;-74
2023/02/28 07:32:55;;;;;;;;;;;;;;;-2.49;83.49;97036.56;4994257;28;20401;-74
2023/02/28 07:35:22;;;;;;;;;;;;;;;-2.46;82.15;97029.44;4993877;28;20423;-75
2023/02/28 07:37:47;;;;;;;;;;;;;;;-2.41;82.67;97026.50;4994004;28;19977;-74
2023/02/28 07:40:13;;;;;;;;;;;;;;;-2.14;95.40;97054.31;4993908;28;20405;-74
2023/02/28 07:42:41;;;;;;;;;;;;;;;-1.69;100.00;97043.78;4994245;28;19970;-74
2023/02/28 07:45:07;;;;;;;;;;;;;;;-1.49;83.12;96938.41;4993101;28;19947;-75
2023/02/28 07:47:33;;;;;;;;;;;;;;;-1.53;80.17;96921.66;4994076;28;19949;-74
2023/02/28 07:49:59;;;;;;;;;;;;;;;-1.67;78.85;96918.47;4993837;28;19955;-76
2023/02/28 07:52:25;;;;;;;;;;;;;;;-1.75;79.45;96925.22;4993788;28;19946;-74
2023/02/28 07:54:51;;;;;;;;;;;;;;;-1.82;79.60;96937.75;4976635;28;19951;-74
2023/02/28 07:57:17;;;;;;;;;;;;;;;-1.89;79.06;96940.03;4993703;28;20395;-74
2023/02/28 07:59:43;;;;;;;;;;;;;;;-1.75;83.84;96974.06;4993806;28;19956;-75
2023/02/28 08:02:16;;;;;;;;;;;;;;;-1.86;77.68;96936.41;4993820;28;20454;-75
2023/02/28 08:04:42;;;;;;;;;;;;;;;-1.98;79.99;96953.63;4996046;28;20336;-74
2023/02/28 08:07:12;;;;;;;;;;;;;;;-2.00;79.48;96954.72;4997933;28;20321;-74
2023/02/28 08:09:39;;;;;;;;;;;;;;;-2.02;76.60;96929.13;4997224;28;20319;-74
2023/02/28 08:12:05;;;;;;;;;;;;;;;-2.00;79.31;96963.22;4997462;28;19950;-74
2023/02/28 08:14:31;;;;;;;;;;;;;;;-1.97;79.49;96960.41;4979614;28;19950;-74
2023/02/28 08:16:56;;;;;;;;;;;;;;;-1.93;79.25;96968.66;4997380;28;19991;-75
2023/02/28 08:19:22;;;;;;;;;;;;;;;-1.91;78.25;96969.34;4997186;28;20000;-75
2023/02/28 08:21:48;;;;;;;;;;;;;;;-1.94;77.78;96973.00;4996974;28;19990;-75
2023/02/28 08:24:14;;;;;;;;;;;;;;;-2.02;76.58;96956.59;4997360;28;20418;-74
2023/02/28 08:26:40;;;;;;;;;;;;;;;-2.09;78.65;96974.28;4996845;28;20383;-74
2023/02/28 08:29:06;;;;;;;;;;;;;;;-2.10;79.52;96980.34;4997200;28;19956;-74
2023/02/28 08:31:32;;;;;;;;;;;;;;;-2.14;77.87;96963.53;4979438;28;19948;-74
2023/02/28 08:33:59;;;;;;;;;;;;;;;-2.14;79.22;96976.38;4997048;28;20305;-74
2023/02/28 08:36:25;;;;;;;;;;;;;;;-2.11;77.32;96971.00;4996721;28;19964;-74
2023/02/28 08:38:51;;;;;;;;;;;;;;;-2.10;78.45;96985.47;4996964;28;19971;-74
2023/02/28 08:41:17;;;;;;;;;;;;;;;-2.06;78.74;96974.84;4996658;28;19977;-74
2023/02/28 08:43:43;;;;;;;;;;;;;;;-2.00;78.43;96965.78;4996640;28;19957;-74
2023/02/28 08:46:11;;;;;;;;;;;;;;;-1.97;77.57;96960.41;4996650;28;20489;-74
2023/02/28 08:48:37;;;;;;;;;;;;;;;-1.98;77.70;96969.06;4996338;28;20325;-75
2023/02/28 08:51:05;;;;;;;;;;;;;;;-1.96;78.82;96981.78;4996716;28;19948;-74
2023/02/28 08:53:31;;;;;;;;;;;;;;;-1.99;77.39;96975.16;4996492;28;19948;-75
2023/02/28 08:55:58;;;;;;;;;;;;;;;-1.99;77.57;96985.44;4996515;28;19947;-74
2023/02/28 08:58:24;;;;;;;;;;;;;;;-2.03;76.82;96978.91;4995809;28;19962;-74
2023/02/28 09:00:50;;;;;;;;;;;;;;;-2.00;76.61;96977.84;4996513;28;20336;-75
2023/02/28 09:03:17;;;;;;;;;;;;;;;-1.99;77.73;96982.84;4996232;28;19948;-75
2023/02/28 09:05:56;;;;;;;;;;;;;;;-1.95;76.33;96978.25;4996172;28;20342;-74
2023/02/28 09:08:22;;;;;;;;;;;;;;;-1.92;77.32;96988.31;4996847;28;19944;-74
2023/02/28 09:10:48;;;;;;;;;;;;;;;-1.88;77.50;96989.69;4996466;28;19953;-75
2023/02/28 09:13:14;;;;;;;;;;;;;;;-1.86;76.97;96986.03;4996294;28;19998;-75
2023/02/28 09:15:40;;;;;;;;;;;;;;;-1.79;76.34;96980.41;4995269;28;19938;-75
2023/02/28 09:18:06;;;;;;;;;;;;;;;-1.77;76.48;96981.88;4996136;28;19981;-74
2023/02/28 09:20:32;;;;;;;;;;;;;;;-1.78;76.28;96982.84;4996097;28;20037;-74
2023/02/28 09:22:58;;;;;;;;;;;;;;;-1.73;77.54;96992.75;4996145;28;19999;-74
2023/02/28 09:25:23;;;;;;;;;;;;;;;-1.67;76.92;96984.53;4995927;28;19952;-74
2023/02/28 09:27:49;;;;;;;;;;;;;;;-1.58;77.56;96988.88;4996114;28;20007;-74
2023/02/28 09:30:16;;;;;;;;;;;;;;;-1.58;75.32;96972.66;4995887;28;20001;-75
2023/02/28 09:32:41;;;;;;;;;;;;;;;-1.56;76.63;96983.63;4995872;28;20343;-75
2023/02/28 09:35:13;;;;;;;;;;;;;;;-1.56;75.62;96970.75;4996394;28;19950;-74
2023/02/28 09:37:38;;;;;;;;;;;;;;;-1.46;85.32;97051.38;4978378;28;20435;-76
2023/02/28 09:40:05;;;;;;;;;;;;;;;-1.09;77.33;96984.75;4995939;28;19949;-74
2023/02/28 09:42:33;;;;;;;;;;;;;;;-0.99;74.58;96961.59;4995786;28;19975;-74
2023/02/28 09:45:01;;;;;;;;;;;;;;;-0.97;74.82;96964.03;4995729;28;19946;-74
2023/02/28 09:47:33;;;;;;;;;;;;;;;-1.08;73.14;96955.47;4994890;28;20344;-74
2023/02/28 09:50:03;;;;;;;;;;;;;;;-1.19;73.35;96953.03;4995729;28;19966;-74
2023/02/28 09:52:30;;;;;;;;;;;;;;;-1.23;74.05;96964.53;4995447;28;19950;-74
2023/02/28 09:54:59;;;;;;;;;;;;;;;-1.22;74.40;96968.72;4995496;28;19945;-74
2023/02/28 09:57:25;;;;;;;;;;;;;;;-1.18;73.94;96980.38;4995163;28;19947;-74
2023/02/28 09:59:58;;;;;;;;;;;;;;;-1.17;72.73;96963.19;4995181;28;19955;-74
2023/02/28 10:02:33;;;;;;;;;;;;;;;-1.14;73.73;96970.63;4977628;28;19946;-74
2023/02/28 10:05:02;;;;;;;;;;;;;;;-1.10;74.17;96987.44;4995194;28;20457;-74
2023/02/28 10:07:49;;;;;;;;;;;;;;;-1.14;71.86;96957.75;4994984;28;19956;-74
2023/02/28 10:10:24;;;;;;;;;;;;;;;-1.19;72.03;96971.03;4980175;28;19942;-74
2023/02/28 10:12:52;;;;;;;;;;;;;;;-1.18;73.33;96982.94;4995034;28;19954;-74
2023/02/28 10:15:18;;;;;;;;;;;;;;;-1.17;73.28;96987.16;4995035;28;19941;-74
2023/02/28 10:17:47;;;;;;;;;;;;;;;-1.18;72.66;96977.00;4994387;28;19959;-74
2023/02/28 10:20:19;;;;;;;;;;;;;;;-1.21;72.59;96978.06;4994928;28;19953;-75
2023/02/28 10:23:07;;;;;;;;;;;;;;;-1.21;72.27;96983.22;4995021;28;19947;-74
2023/02/28 10:25:34;;;;;;;;;;;;;;;-1.23;72.63;96985.09;4994827;28;19940;-74
2023/02/28 10:28:13;;;;;;;;;;;;;;;-1.26;71.62;96972.47;4976673;28;19954;-73
2023/02/28 10:30:44;;;;;;;;;;;;;;;-1.26;72.24;96973.31;4994816;28;20302;-74
2023/02/28 10:33:30;;;;;;;;;;;;;;;-1.14;73.22;96997.19;4994982;28;19945;-75
2023/02/28 10:35:57;;;;;;;;;;;;;;;-1.01;72.89;96991.78;4995107;28;19952;-73
2023/02/28 10:38:24;;;;;;;;;;;;;;;-0.91;72.91;96990.06;4994660;28;19948;-72
2023/02/28 10:40:50;;;;;;;;;;;;;;;-0.84;71.47;96974.88;4994781;28;20427;-74
2023/02/28 10:43:18;;;;;;;;;;;;;;;-0.84;71.65;96973.16;4977287;28;19952;-74
2023/02/28 10:45:53;;;;;;;;;;;;;;;-0.79;71.57;96970.16;4994936;28;19950;-73
2023/02/28 10:48:19;;;;;;;;;;;;;;;-0.86;70.69;96969.06;4994653;28;19945;-74
2023/02/28 10:50:49;;;;;;;;;;;;;;;-0.87;70.59;96973.41;4994706;28;19958;-74
2023/02/28 10:53:24;;;;;;;;;;;;;;;-0.86;72.21;96987.91;4994392;28;19940;-74
2023/02/28 10:56:04;;;;;;;;;;;;;;;-0.75;71.09;96978.44;4994364;28;19946;-74
2023/02/28 10:58:50;;;;;;;;;;;;;;;-0.63;70.57;96964.47;4994288;28;20399;-74
2023/02/28 11:01:19;;;;;;;;;;;;;;;-0.60;70.15;96960.84;4994245;28;20394;-74
2023/02/28 11:03:45;;;;;;;;;;;;;;;-0.56;69.96;96963.00;4994230;28;19958;-75
2023/02/28 11:06:21;;;;;;;;;;;;;;;-0.49;71.03;96981.31;4994154;28;19964;-74
2023/02/28 11:08:49;;;;;;;;;;;;;;;-0.42;74.58;97011.56;4994294;28;19945;-74
2023/02/28 11:11:16;;;;;;;;;;;;;;;-0.17;70.46;96969.88;4993439;28;19954;-74
2023/02/28 11:13:44;;;;;;;;;;;;;;;0.13;91.50;97139.94;4994609;28;19959;-75
2023/02/28 11:16:11;;;;;;;;;;;;;;;0.47;70.08;96958.88;4994127;28;20309;-74
2023/02/28 11:18:54;;;;;;;;;;;;;;;0.50;68.28;96950.84;4994182;28;19944;-75
2023/02/28 11:21:29;;;;;;;;;;;;;;;0.37;67.45;96940.84;4983617;28;19948;-75
2023/02/28 11:24:14;;;;;;;;;;;;;;;0.24;67.25;96945.53;4994087;28;19949;-74
2023/02/28 11:26:44;;;;;;;;;;;;;;;0.15;67.50;96959.28;4983143;28;20324;-75
2023/02/28 11:29:16;;;;;;;;;;;;;;;-0.05;66.13;96955.91;4993916;28;19956;-75
2023/02/28 11:31:41;;;;;;;;;;;;;;;-0.10;67.33;96955.53;4994098;28;19952;-75
2023/02/28 11:34:33;;;;;;;;;;;;;;;-0.04;68.93;96975.59;4994068;28;19957;-75
2023/02/28 11:37:00;;;;;;;;;;;;;;;0.04;66.38;96951.66;4990071;28;19952;-75
2023/02/28 11:39:27;;;;;;;;;;;;;;;0.07;67.15;96962.53;4995756;28;19943;-75
2023/02/28 11:42:11;;;;;;;;;;;;;;;0.20;67.54;96949.34;4998253;28;20344;-75
2023/02/28 11:44:51;;;;;;;;;;;;;;;0.34;66.97;96946.31;4998279;28;19947;-74
2023/02/28 11:47:20;;;;;;;;;;;;;;;0.43;65.86;96930.94;4997717;28;19963;-74
2023/02/28 11:50:10;;;;;;;;;;;;;;;0.49;67.44;96943.25;4997761;28;20319;-75
2023/02/28 11:52:36;;;;;;;;;;;;;;;0.53;65.74;96923.97;4964267;28;20422;-74
2023/02/28 11:55:08;;;;;;;;;;;;;;;0.79;65.87;96932.63;4997650;28;19940;-75
2023/02/28 11:57:49;;;;;;;;;;;;;;;0.85;64.63;96904.63;4997653;28;20436;-74
2023/02/28 12:00:33;;;;;;;;;;;;;;;0.90;64.94;96912.75;4997466;28;19949;-75
2023/02/28 12:03:12;;;;;;;;;;;;;;;1.08;64.32;96902.44;4997525;28;19941;-74
2023/02/28 12:05:43;;;;;;;;;;;;;;;1.15;62.71;96890.56;4980386;28;19945;-75
2023/02/28 12:08:22;;;;;;;;;;;;;;;1.02;62.54;96885.75;4997544;28;20522;-75
2023/02/28 12:11:03;;;;;;;;;;;;;;;0.86;64.25;96901.09;4997585;28;19951;-75
2023/02/28 12:13:32;;;;;;;;;;;;;;;1.02;62.97;96889.16;4997152;28;19945;-75
2023/02/28 12:16:16;;;;;;;;;;;;;;;1.32;62.45;96894.91;4997311;28;19951;-75
2023/02/28 12:19:11;;;;;;;;;;;;;;;1.75;63.83;96895.09;4997405;28;19950;-74
2023/02/28 12:21:56;;;;;;;;;;;;;;;1.96;62.67;96884.38;4979815;28;19944;-74
2023/02/28 12:24:22;;;;;;;;;;;;;;;2.01;59.87;96867.44;4997022;28;19958;-74
2023/02/28 12:26:49;;;;;;;;;;;;;;;2.13;61.17;96878.34;4997014;28;19961;-74
2023/02/28 12:29:28;;;;;;;;;;;;;;;2.02;60.40;96884.59;4996943;28;19941;-74
2023/02/28 12:32:12;;;;;;;;;;;;;;;1.95;61.57;96914.63;4996723;28;19949;-74
2023/02/28 12:34:41;;;;;;;;;;;;;;;1.76;59.34;96904.44;4984025;28;20419;-74
2023/02/28 12:37:14;;;;;;;;;;;;;;;1.53;59.91;96910.09;4997081;28;19966;-75
2023/02/28 12:39:52;;;;;;;;;;;;;;;1.50;61.47;96925.09;4996926;28;19946;-75
2023/02/28 12:42:39;;;;;;;;;;;;;;;1.56;62.71;96930.50;4982255;28;19967;-75
2023/02/28 12:45:10;;;;;;;;;;;;;;;1.74;62.08;96933.06;4996654;28;19957;-74
2023/02/28 12:47:38;;;;;;;;;;;;;;;1.83;62.31;96910.66;4996897;28;19960;-74
2023/02/28 12:50:10;;;;;;;;;;;;;;;1.67;60.31;96907.94;4995835;28;19958;-74
2023/02/28 12:52:47;;;;;;;;;;;;;;;1.61;61.71;96920.50;4996399;28;19946;-75
2023/02/28 12:55:13;;;;;;;;;;;;;;;1.75;61.60;96914.00;4996632;28;19947;-75
2023/02/28 12:57:52;;;;;;;;;;;;;;;1.87;61.61;96906.81;4996803;28;19939;-74